Firenze, Italy

09:42 AM CET del 22 Febbraio 2017 (GMT +0100)
Peretola | | Change Station

Alt. 125 ft 43.80 °N, 11.20 °E | Updated 22 minutes ago

Mostly Cloudy
Molto nuvoloso
46 °F
Sembra 46 °F
N
1
Vento Variabile Vento da Variabile

Oggi
Massima -- | Minima -- °F
--% Possibilità di precip.
Ieri
Massima -- | Minima -- °F
Precip. -- in
Pressione 30.15 in
Visibilità 6.2 miglia
Nuvole Alcuni 3000 ft
Molto nuvoloso 4500 ft
Punto di rugiada 41 °F
Umidità 81%
Piovosità 0.00 in
Spessore del manto nevoso Non disponibile.
7:03 AM 5:54 PM
Luna calante, 19% visible
METAR LIRQ 220820Z VRB01KT 9999 FEW030 BKN045 08/05 Q1021
Pressione 30.15 in
Visibilità 6.2 miglia
Nuvole Alcuni 3000 ft
Molto nuvoloso 4500 ft
Punto di rugiada 41 °F
Umidità 81%
Piovosità 0.00 in
Spessore del manto nevoso Non disponibile.
7:03 AM 5:54 PM
Luna calante, 19% visible
METAR LIRQ 220820Z VRB01KT 9999 FEW030 BKN045 08/05 Q1021

Get Your Daily Forecast Email!

Thanks for signing up!

Be on the lookout for a verification email in your inbox.

You'll start receiving the daily forecast at 8 AM.

×

10-Day Weather Forecast

×

Almanac

Astronomia

Feb. 22, 2017 Alba Tramonto
Ora attuale
Crepuscolo civile
Crepuscolo nautico
Crepuscolo astronomico
Luna
Estensione della luce visibile
Lunghezza del giorno
Tomorrow will be .
, % of the Moon is Illuminated

Gli estremi di oggi

Massime Regione Minime Regione

Community

WunderPhotos

Upload Photos

1,962,540 foto caricate!

WunderBlog® & News

Nearby

Qualità dell'aria

  Qualità dell'aria Indice AQ Inquinante
Not available.

Profondità neve

Stazione Profondità Altitudine

Attività sismica

Città  Distanza Mag. Data & Ora
Minimo Magnitudo Mostrato è 2.5.

Temperature delle acque costiere

Località Temperatura

Stations

Stazioni meteo nelle vicinanze

Ubicazione della stazione Temp. Raffreddamento del vento Punto di rugiada Umidità Vento Precip. Alt. Aggiornato Tipo